Terminal Aerodrome Forecast
Issued by NWS Omaha/Valley, NE

Home | Current Version | Previous Version | Text Only | Print | Product List | Glossary Off
Versions: 1 2 3 4 5 6 7 8 9 10 11 12 13 14 15 16 17

000
FTUS43 KOAX 170129 AAA
TAFOFK
TAF AMD
KOFK 170129Z 1701/1724 18010KT P6SM BKN250
     FM170300 18011KT P6SM BKN200 WS020/22040KT
     FM170600 19013KT P6SM BKN100 WS020/23045KT
     FM171200 23008KT P6SM BKN120
     FM171800 29012KT P6SM SCT050 SCT250=

USA.gov is the U.S. government's official web portal to all federal, state and local government web resources and services.